sensor_id;sensor_type;location;lat;lon;timestamp;P1;durP1;ratioP1;P2;durP2;ratioP2
36321;SDS011;23564;48.290;11.460;2023-05-07T00:00:21;10.05;;;4.68;;
36321;SDS011;23564;48.290;11.460;2023-05-07T00:02:46;8.38;;;4.90;;
36321;SDS011;23564;48.290;11.460;2023-05-07T00:05:12;11.55;;;5.18;;
36321;SDS011;23564;48.290;11.460;2023-05-07T00:07:38;9.55;;;6.50;;
36321;SDS011;23564;48.290;11.460;2023-05-07T00:10:04;9.57;;;5.85;;
36321;SDS011;23564;48.290;11.460;2023-05-07T00:12:31;9.65;;;5.18;;
36321;SDS011;23564;48.290;11.460;2023-05-07T00:14:58;9.40;;;5.05;;
36321;SDS011;23564;48.290;11.460;2023-05-07T00:17:25;9.18;;;4.40;;
36321;SDS011;23564;48.290;11.460;2023-05-07T00:19:51;9.18;;;4.75;;
36321;SDS011;23564;48.290;11.460;2023-05-07T00:22:16;9.20;;;4.15;;
36321;SDS011;23564;48.290;11.460;2023-05-07T00:24:42;7.88;;;4.50;;
36321;SDS011;23564;48.290;11.460;2023-05-07T00:27:08;7.63;;;5.13;;
36321;SDS011;23564;48.290;11.460;2023-05-07T00:29:33;9.85;;;5.03;;
36321;SDS011;23564;48.290;11.460;2023-05-07T00:31:59;8.32;;;4.15;;
36321;SDS011;23564;48.290;11.460;2023-05-07T00:34:25;7.03;;;4.60;;
36321;SDS011;23564;48.290;11.460;2023-05-07T00:36:50;7.15;;;4.63;;
36321;SDS011;23564;48.290;11.460;2023-05-07T00:39:16;6.15;;;4.65;;
36321;SDS011;23564;48.290;11.460;2023-05-07T00:41:41;11.32;;;4.65;;
36321;SDS011;23564;48.290;11.460;2023-05-07T00:44:07;8.73;;;4.75;;
36321;SDS011;23564;48.290;11.460;2023-05-07T00:46:32;8.38;;;4.05;;
36321;SDS011;23564;48.290;11.460;2023-05-07T00:48:58;9.52;;;4.60;;
36321;SDS011;23564;48.290;11.460;2023-05-07T00:51:25;5.88;;;4.95;;
36321;SDS011;23564;48.290;11.460;2023-05-07T00:53:52;8.65;;;5.20;;
36321;SDS011;23564;48.290;11.460;2023-05-07T00:56:19;12.98;;;4.88;;
36321;SDS011;23564;48.290;11.460;2023-05-07T00:58:48;10.30;;;5.38;;
36321;SDS011;23564;48.290;11.460;2023-05-07T01:01:14;7.50;;;5.07;;
36321;SDS011;23564;48.290;11.460;2023-05-07T01:03:41;15.18;;;5.28;;
36321;SDS011;23564;48.290;11.460;2023-05-07T01:06:07;8.82;;;5.07;;
36321;SDS011;23564;48.290;11.460;2023-05-07T01:08:36;10.07;;;5.20;;
36321;SDS011;23564;48.290;11.460;2023-05-07T01:11:04;7.53;;;5.22;;
36321;SDS011;23564;48.290;11.460;2023-05-07T01:13:31;9.25;;;5.20;;
36321;SDS011;23564;48.290;11.460;2023-05-07T01:15:57;8.75;;;5.38;;
36321;SDS011;23564;48.290;11.460;2023-05-07T01:18:23;9.77;;;5.53;;
36321;SDS011;23564;48.290;11.460;2023-05-07T01:20:48;10.45;;;5.50;;
36321;SDS011;23564;48.290;11.460;2023-05-07T01:23:14;9.63;;;5.38;;
36321;SDS011;23564;48.290;11.460;2023-05-07T01:25:40;9.20;;;5.80;;
36321;SDS011;23564;48.290;11.460;2023-05-07T01:28:06;9.20;;;5.68;;
36321;SDS011;23564;48.290;11.460;2023-05-07T01:30:31;7.32;;;5.47;;
36321;SDS011;23564;48.290;11.460;2023-05-07T01:33:01;10.25;;;5.60;;
36321;SDS011;23564;48.290;11.460;2023-05-07T01:35:35;12.98;;;5.82;;
36321;SDS011;23564;48.290;11.460;2023-05-07T01:38:06;8.77;;;5.65;;
36321;SDS011;23564;48.290;11.460;2023-05-07T01:40:33;12.35;;;5.88;;
36321;SDS011;23564;48.290;11.460;2023-05-07T01:43:02;9.93;;;5.68;;
36321;SDS011;23564;48.290;11.460;2023-05-07T01:45:28;9.35;;;6.28;;
36321;SDS011;23564;48.290;11.460;2023-05-07T01:47:57;10.13;;;6.10;;
36321;SDS011;23564;48.290;11.460;2023-05-07T01:50:24;7.97;;;6.00;;
36321;SDS011;23564;48.290;11.460;2023-05-07T01:52:50;9.25;;;6.38;;
36321;SDS011;23564;48.290;11.460;2023-05-07T01:55:16;7.45;;;5.90;;
36321;SDS011;23564;48.290;11.460;2023-05-07T01:57:41;8.70;;;5.05;;
36321;SDS011;23564;48.290;11.460;2023-05-07T02:00:07;7.95;;;5.88;;
36321;SDS011;23564;48.290;11.460;2023-05-07T02:02:34;12.00;;;5.45;;
36321;SDS011;23564;48.290;11.460;2023-05-07T02:05:00;9.45;;;6.10;;
36321;SDS011;23564;48.290;11.460;2023-05-07T02:07:28;6.85;;;5.57;;
36321;SDS011;23564;48.290;11.460;2023-05-07T02:09:54;9.32;;;5.38;;
36321;SDS011;23564;48.290;11.460;2023-05-07T02:12:22;6.10;;;5.20;;
36321;SDS011;23564;48.290;11.460;2023-05-07T02:14:48;7.68;;;5.25;;
36321;SDS011;23564;48.290;11.460;2023-05-07T02:17:14;13.00;;;5.60;;
36321;SDS011;23564;48.290;11.460;2023-05-07T02:19:39;9.60;;;4.70;;
36321;SDS011;23564;48.290;11.460;2023-05-07T02:22:05;7.15;;;5.15;;
36321;SDS011;23564;48.290;11.460;2023-05-07T02:24:31;9.27;;;5.47;;
36321;SDS011;23564;48.290;11.460;2023-05-07T02:26:57;11.15;;;5.43;;
36321;SDS011;23564;48.290;11.460;2023-05-07T02:29:23;8.70;;;5.05;;
36321;SDS011;23564;48.290;11.460;2023-05-07T02:31:48;7.28;;;4.90;;
36321;SDS011;23564;48.290;11.460;2023-05-07T02:34:16;8.55;;;4.80;;
36321;SDS011;23564;48.290;11.460;2023-05-07T02:36:42;6.97;;;5.10;;
36321;SDS011;23564;48.290;11.460;2023-05-07T02:39:08;8.63;;;5.60;;
36321;SDS011;23564;48.290;11.460;2023-05-07T02:41:33;6.75;;;5.10;;
36321;SDS011;23564;48.290;11.460;2023-05-07T02:43:59;5.88;;;5.28;;
36321;SDS011;23564;48.290;11.460;2023-05-07T02:46:25;7.53;;;5.63;;
36321;SDS011;23564;48.290;11.460;2023-05-07T02:48:50;8.27;;;5.18;;
36321;SDS011;23564;48.290;11.460;2023-05-07T02:51:19;5.80;;;5.10;;
36321;SDS011;23564;48.290;11.460;2023-05-07T02:53:46;8.75;;;5.07;;
36321;SDS011;23564;48.290;11.460;2023-05-07T02:56:12;7.53;;;4.72;;
36321;SDS011;23564;48.290;11.460;2023-05-07T02:58:37;8.82;;;5.38;;
36321;SDS011;23564;48.290;11.460;2023-05-07T03:01:07;9.10;;;5.38;;
36321;SDS011;23564;48.290;11.460;2023-05-07T03:03:33;6.15;;;5.25;;
36321;SDS011;23564;48.290;11.460;2023-05-07T03:05:59;8.35;;;4.97;;
36321;SDS011;23564;48.290;11.460;2023-05-07T03:08:24;9.95;;;6.20;;
36321;SDS011;23564;48.290;11.460;2023-05-07T03:10:50;9.32;;;6.05;;
36321;SDS011;23564;48.290;11.460;2023-05-07T03:13:16;9.48;;;6.43;;
36321;SDS011;23564;48.290;11.460;2023-05-07T03:15:42;12.15;;;6.43;;
36321;SDS011;23564;48.290;11.460;2023-05-07T03:18:07;9.95;;;5.63;;
36321;SDS011;23564;48.290;11.460;2023-05-07T03:20:33;11.13;;;6.30;;
36321;SDS011;23564;48.290;11.460;2023-05-07T03:22:59;11.00;;;6.63;;
36321;SDS011;23564;48.290;11.460;2023-05-07T03:25:24;12.00;;;7.60;;
36321;SDS011;23564;48.290;11.460;2023-05-07T03:27:50;13.18;;;7.93;;
36321;SDS011;23564;48.290;11.460;2023-05-07T03:30:16;9.82;;;6.95;;
36321;SDS011;23564;48.290;11.460;2023-05-07T03:32:42;13.20;;;7.03;;
36321;SDS011;23564;48.290;11.460;2023-05-07T03:35:08;9.77;;;6.45;;
36321;SDS011;23564;48.290;11.460;2023-05-07T03:37:33;10.23;;;6.93;;
36321;SDS011;23564;48.290;11.460;2023-05-07T03:39:59;16.05;;;8.82;;
36321;SDS011;23564;48.290;11.460;2023-05-07T03:42:25;9.90;;;6.60;;
36321;SDS011;23564;48.290;11.460;2023-05-07T03:44:50;9.93;;;6.47;;
36321;SDS011;23564;48.290;11.460;2023-05-07T03:47:16;10.65;;;6.28;;
36321;SDS011;23564;48.290;11.460;2023-05-07T03:49:41;7.97;;;6.25;;
36321;SDS011;23564;48.290;11.460;2023-05-07T03:52:07;12.95;;;6.45;;
36321;SDS011;23564;48.290;11.460;2023-05-07T03:54:33;12.60;;;5.80;;
36321;SDS011;23564;48.290;11.460;2023-05-07T03:56:58;8.05;;;6.07;;
36321;SDS011;23564;48.290;11.460;2023-05-07T03:59:24;7.38;;;5.20;;
36321;SDS011;23564;48.290;11.460;2023-05-07T04:01:49;10.38;;;6.00;;
36321;SDS011;23564;48.290;11.460;2023-05-07T04:04:15;7.32;;;5.55;;
36321;SDS011;23564;48.290;11.460;2023-05-07T04:06:41;11.23;;;5.60;;
36321;SDS011;23564;48.290;11.460;2023-05-07T04:09:07;12.05;;;6.35;;
36321;SDS011;23564;48.290;11.460;2023-05-07T04:11:32;10.27;;;6.05;;
36321;SDS011;23564;48.290;11.460;2023-05-07T04:13:58;11.77;;;6.13;;
36321;SDS011;23564;48.290;11.460;2023-05-07T04:16:24;9.95;;;6.32;;
36321;SDS011;23564;48.290;11.460;2023-05-07T04:18:50;7.78;;;6.28;;
36321;SDS011;23564;48.290;11.460;2023-05-07T04:21:16;6.57;;;5.95;;
36321;SDS011;23564;48.290;11.460;2023-05-07T04:23:42;8.63;;;6.10;;
36321;SDS011;23564;48.290;11.460;2023-05-07T04:26:08;11.35;;;5.65;;
36321;SDS011;23564;48.290;11.460;2023-05-07T04:28:34;8.02;;;6.13;;
36321;SDS011;23564;48.290;11.460;2023-05-07T04:31:00;11.60;;;6.63;;
36321;SDS011;23564;48.290;11.460;2023-05-07T04:33:26;11.82;;;6.15;;
36321;SDS011;23564;48.290;11.460;2023-05-07T04:35:51;8.57;;;6.82;;
36321;SDS011;23564;48.290;11.460;2023-05-07T04:38:17;10.43;;;6.53;;
36321;SDS011;23564;48.290;11.460;2023-05-07T04:40:43;12.35;;;7.25;;
36321;SDS011;23564;48.290;11.460;2023-05-07T04:43:09;13.98;;;7.20;;
36321;SDS011;23564;48.290;11.460;2023-05-07T04:45:37;8.48;;;7.03;;
36321;SDS011;23564;48.290;11.460;2023-05-07T04:48:05;8.60;;;6.88;;
36321;SDS011;23564;48.290;11.460;2023-05-07T04:50:31;15.65;;;6.80;;
36321;SDS011;23564;48.290;11.460;2023-05-07T04:52:56;9.90;;;7.32;;
36321;SDS011;23564;48.290;11.460;2023-05-07T04:55:22;12.63;;;8.15;;
36321;SDS011;23564;48.290;11.460;2023-05-07T04:57:47;12.20;;;7.85;;
36321;SDS011;23564;48.290;11.460;2023-05-07T05:00:13;11.95;;;7.57;;
36321;SDS011;23564;48.290;11.460;2023-05-07T05:02:44;11.17;;;8.20;;
36321;SDS011;23564;48.290;11.460;2023-05-07T05:05:10;10.82;;;7.70;;
36321;SDS011;23564;48.290;11.460;2023-05-07T05:07:36;11.85;;;8.00;;
36321;SDS011;23564;48.290;11.460;2023-05-07T05:10:02;11.45;;;7.80;;
36321;SDS011;23564;48.290;11.460;2023-05-07T05:12:28;10.15;;;7.50;;
36321;SDS011;23564;48.290;11.460;2023-05-07T05:14:54;10.18;;;7.93;;
36321;SDS011;23564;48.290;11.460;2023-05-07T05:17:20;12.27;;;7.30;;
36321;SDS011;23564;48.290;11.460;2023-05-07T05:19:45;11.45;;;7.80;;
36321;SDS011;23564;48.290;11.460;2023-05-07T05:22:11;12.98;;;8.50;;
36321;SDS011;23564;48.290;11.460;2023-05-07T05:24:36;15.68;;;8.82;;
36321;SDS011;23564;48.290;11.460;2023-05-07T05:27:02;11.85;;;9.05;;
36321;SDS011;23564;48.290;11.460;2023-05-07T05:29:28;13.50;;;8.10;;
36321;SDS011;23564;48.290;11.460;2023-05-07T05:31:53;12.73;;;8.35;;
36321;SDS011;23564;48.290;11.460;2023-05-07T05:34:19;10.40;;;8.50;;
36321;SDS011;23564;48.290;11.460;2023-05-07T05:36:45;12.55;;;8.73;;
36321;SDS011;23564;48.290;11.460;2023-05-07T05:39:10;13.98;;;8.82;;
36321;SDS011;23564;48.290;11.460;2023-05-07T05:41:36;10.05;;;7.95;;
36321;SDS011;23564;48.290;11.460;2023-05-07T05:44:01;13.18;;;8.65;;
36321;SDS011;23564;48.290;11.460;2023-05-07T05:46:27;12.55;;;8.32;;
36321;SDS011;23564;48.290;11.460;2023-05-07T05:48:53;12.27;;;8.35;;
36321;SDS011;23564;48.290;11.460;2023-05-07T05:51:18;11.77;;;8.93;;
36321;SDS011;23564;48.290;11.460;2023-05-07T05:53:44;11.93;;;8.38;;
36321;SDS011;23564;48.290;11.460;2023-05-07T05:56:09;11.27;;;8.07;;
36321;SDS011;23564;48.290;11.460;2023-05-07T05:58:35;8.70;;;7.72;;
36321;SDS011;23564;48.290;11.460;2023-05-07T06:01:00;12.65;;;8.50;;
36321;SDS011;23564;48.290;11.460;2023-05-07T06:03:27;16.92;;;8.63;;
36321;SDS011;23564;48.290;11.460;2023-05-07T06:05:53;9.60;;;7.93;;
36321;SDS011;23564;48.290;11.460;2023-05-07T06:08:18;11.10;;;8.23;;
36321;SDS011;23564;48.290;11.460;2023-05-07T06:10:44;11.60;;;7.90;;
36321;SDS011;23564;48.290;11.460;2023-05-07T06:13:10;11.55;;;8.48;;
36321;SDS011;23564;48.290;11.460;2023-05-07T06:15:36;9.13;;;7.93;;
36321;SDS011;23564;48.290;11.460;2023-05-07T06:18:01;10.00;;;7.32;;
36321;SDS011;23564;48.290;11.460;2023-05-07T06:20:27;10.15;;;8.35;;
36321;SDS011;23564;48.290;11.460;2023-05-07T06:22:52;11.10;;;7.53;;
36321;SDS011;23564;48.290;11.460;2023-05-07T06:25:18;9.55;;;8.13;;
36321;SDS011;23564;48.290;11.460;2023-05-07T06:27:44;13.32;;;7.65;;
36321;SDS011;23564;48.290;11.460;2023-05-07T06:30:10;9.35;;;7.30;;
36321;SDS011;23564;48.290;11.460;2023-05-07T06:32:36;10.40;;;8.38;;
36321;SDS011;23564;48.290;11.460;2023-05-07T06:35:01;10.20;;;8.13;;
36321;SDS011;23564;48.290;11.460;2023-05-07T06:37:27;10.60;;;8.32;;
36321;SDS011;23564;48.290;11.460;2023-05-07T06:39:53;11.80;;;9.07;;
36321;SDS011;23564;48.290;11.460;2023-05-07T06:42:18;13.07;;;9.05;;
36321;SDS011;23564;48.290;11.460;2023-05-07T06:44:44;12.50;;;9.00;;
36321;SDS011;23564;48.290;11.460;2023-05-07T06:47:10;17.63;;;9.70;;
36321;SDS011;23564;48.290;11.460;2023-05-07T06:49:35;14.65;;;9.40;;
36321;SDS011;23564;48.290;11.460;2023-05-07T06:52:01;10.80;;;9.48;;
36321;SDS011;23564;48.290;11.460;2023-05-07T06:54:26;12.38;;;9.13;;
36321;SDS011;23564;48.290;11.460;2023-05-07T06:56:52;11.30;;;9.50;;
36321;SDS011;23564;48.290;11.460;2023-05-07T06:59:18;11.27;;;8.07;;
36321;SDS011;23564;48.290;11.460;2023-05-07T07:01:44;13.48;;;9.40;;
36321;SDS011;23564;48.290;11.460;2023-05-07T07:04:09;12.27;;;9.10;;
36321;SDS011;23564;48.290;11.460;2023-05-07T07:06:35;11.10;;;8.73;;
36321;SDS011;23564;48.290;11.460;2023-05-07T07:09:00;13.48;;;9.55;;
36321;SDS011;23564;48.290;11.460;2023-05-07T07:11:26;14.35;;;9.40;;
36321;SDS011;23564;48.290;11.460;2023-05-07T07:13:52;16.92;;;10.70;;
36321;SDS011;23564;48.290;11.460;2023-05-07T07:16:19;13.50;;;9.27;;
36321;SDS011;23564;48.290;11.460;2023-05-07T07:18:45;13.93;;;10.07;;
36321;SDS011;23564;48.290;11.460;2023-05-07T07:21:11;10.60;;;8.68;;
36321;SDS011;23564;48.290;11.460;2023-05-07T07:23:37;10.43;;;8.27;;
36321;SDS011;23564;48.290;11.460;2023-05-07T07:26:02;11.13;;;8.07;;
36321;SDS011;23564;48.290;11.460;2023-05-07T07:28:28;10.65;;;8.68;;
36321;SDS011;23564;48.290;11.460;2023-05-07T07:30:53;10.77;;;8.13;;
36321;SDS011;23564;48.290;11.460;2023-05-07T07:33:19;12.35;;;8.95;;
36321;SDS011;23564;48.290;11.460;2023-05-07T07:35:45;13.52;;;8.00;;
36321;SDS011;23564;48.290;11.460;2023-05-07T07:38:10;9.13;;;7.00;;
36321;SDS011;23564;48.290;11.460;2023-05-07T07:40:36;11.02;;;7.45;;
36321;SDS011;23564;48.290;11.460;2023-05-07T07:43:02;8.48;;;7.05;;
36321;SDS011;23564;48.290;11.460;2023-05-07T07:45:27;9.95;;;8.10;;
36321;SDS011;23564;48.290;11.460;2023-05-07T07:47:54;14.02;;;7.57;;
36321;SDS011;23564;48.290;11.460;2023-05-07T07:50:19;15.00;;;7.90;;
36321;SDS011;23564;48.290;11.460;2023-05-07T07:52:45;10.77;;;7.97;;
36321;SDS011;23564;48.290;11.460;2023-05-07T07:55:11;9.25;;;7.32;;
36321;SDS011;23564;48.290;11.460;2023-05-07T07:57:43;7.65;;;6.60;;
36321;SDS011;23564;48.290;11.460;2023-05-07T08:00:08;10.77;;;7.13;;
36321;SDS011;23564;48.290;11.460;2023-05-07T08:02:34;10.13;;;7.22;;
36321;SDS011;23564;48.290;11.460;2023-05-07T08:05:00;11.88;;;7.18;;
36321;SDS011;23564;48.290;11.460;2023-05-07T08:07:28;11.48;;;7.07;;
36321;SDS011;23564;48.290;11.460;2023-05-07T08:09:53;8.00;;;7.07;;
36321;SDS011;23564;48.290;11.460;2023-05-07T08:12:19;9.82;;;6.82;;
36321;SDS011;23564;48.290;11.460;2023-05-07T08:14:45;9.90;;;6.18;;
36321;SDS011;23564;48.290;11.460;2023-05-07T08:17:11;10.27;;;6.57;;
36321;SDS011;23564;48.290;11.460;2023-05-07T08:19:38;8.90;;;6.90;;
36321;SDS011;23564;48.290;11.460;2023-05-07T08:22:03;9.63;;;7.22;;
36321;SDS011;23564;48.290;11.460;2023-05-07T08:24:30;13.32;;;7.22;;
36321;SDS011;23564;48.290;11.460;2023-05-07T08:26:56;10.45;;;7.00;;
36321;SDS011;23564;48.290;11.460;2023-05-07T08:29:21;9.00;;;6.80;;
36321;SDS011;23564;48.290;11.460;2023-05-07T08:31:47;10.57;;;7.10;;
36321;SDS011;23564;48.290;11.460;2023-05-07T08:34:12;9.98;;;6.85;;
36321;SDS011;23564;48.290;11.460;2023-05-07T08:36:38;9.75;;;7.22;;
36321;SDS011;23564;48.290;11.460;2023-05-07T08:39:04;11.27;;;7.65;;
36321;SDS011;23564;48.290;11.460;2023-05-07T08:41:29;10.07;;;7.18;;
36321;SDS011;23564;48.290;11.460;2023-05-07T08:43:56;9.80;;;6.75;;
36321;SDS011;23564;48.290;11.460;2023-05-07T08:46:25;10.88;;;7.22;;
36321;SDS011;23564;48.290;11.460;2023-05-07T08:48:54;11.02;;;6.72;;
36321;SDS011;23564;48.290;11.460;2023-05-07T08:51:20;13.55;;;7.07;;
36321;SDS011;23564;48.290;11.460;2023-05-07T08:53:47;8.60;;;5.97;;
36321;SDS011;23564;48.290;11.460;2023-05-07T08:56:13;11.00;;;6.53;;
36321;SDS011;23564;48.290;11.460;2023-05-07T08:58:40;11.73;;;7.57;;
36321;SDS011;23564;48.290;11.460;2023-05-07T09:01:13;12.57;;;8.35;;
36321;SDS011;23564;48.290;11.460;2023-05-07T09:03:39;10.60;;;7.43;;
36321;SDS011;23564;48.290;11.460;2023-05-07T09:06:05;8.68;;;7.38;;
36321;SDS011;23564;48.290;11.460;2023-05-07T09:08:32;11.07;;;6.63;;
36321;SDS011;23564;48.290;11.460;2023-05-07T09:10:58;7.05;;;5.53;;
36321;SDS011;23564;48.290;11.460;2023-05-07T09:13:24;9.15;;;6.28;;
36321;SDS011;23564;48.290;11.460;2023-05-07T09:15:50;8.73;;;6.25;;
36321;SDS011;23564;48.290;11.460;2023-05-07T09:18:15;10.60;;;7.22;;
36321;SDS011;23564;48.290;11.460;2023-05-07T09:20:41;9.15;;;6.70;;
36321;SDS011;23564;48.290;11.460;2023-05-07T09:23:07;9.98;;;7.60;;
36321;SDS011;23564;48.290;11.460;2023-05-07T09:25:34;10.50;;;7.57;;
36321;SDS011;23564;48.290;11.460;2023-05-07T09:28:01;8.82;;;6.88;;
36321;SDS011;23564;48.290;11.460;2023-05-07T09:30:28;9.75;;;7.25;;
36321;SDS011;23564;48.290;11.460;2023-05-07T09:32:55;8.82;;;6.90;;
36321;SDS011;23564;48.290;11.460;2023-05-07T09:35:21;8.13;;;7.05;;
36321;SDS011;23564;48.290;11.460;2023-05-07T09:37:49;10.43;;;6.90;;
36321;SDS011;23564;48.290;11.460;2023-05-07T09:40:52;9.98;;;5.93;;
36321;SDS011;23564;48.290;11.460;2023-05-07T09:43:10;8.05;;;5.38;;
36321;SDS011;23564;48.290;11.460;2023-05-07T09:45:37;11.02;;;6.78;;
36321;SDS011;23564;48.290;11.460;2023-05-07T09:48:04;7.78;;;6.25;;
36321;SDS011;23564;48.290;11.460;2023-05-07T09:50:35;10.80;;;5.90;;
36321;SDS011;23564;48.290;11.460;2023-05-07T09:53:04;7.80;;;5.85;;
36321;SDS011;23564;48.290;11.460;2023-05-07T09:55:30;9.23;;;4.57;;
36321;SDS011;23564;48.290;11.460;2023-05-07T09:57:56;8.50;;;5.20;;
36321;SDS011;23564;48.290;11.460;2023-05-07T10:00:23;7.68;;;4.72;;
36321;SDS011;23564;48.290;11.460;2023-05-07T10:02:53;7.07;;;4.57;;
36321;SDS011;23564;48.290;11.460;2023-05-07T10:07:48;5.18;;;3.63;;
36321;SDS011;23564;48.290;11.460;2023-05-07T10:10:15;10.63;;;4.07;;
36321;SDS011;23564;48.290;11.460;2023-05-07T10:12:42;6.63;;;4.07;;
36321;SDS011;23564;48.290;11.460;2023-05-07T10:15:08;4.57;;;3.95;;
36321;SDS011;23564;48.290;11.460;2023-05-07T10:17:35;4.97;;;3.42;;
36321;SDS011;23564;48.290;11.460;2023-05-07T10:20:02;7.00;;;3.28;;
36321;SDS011;23564;48.290;11.460;2023-05-07T10:22:30;6.53;;;3.42;;
36321;SDS011;23564;48.290;11.460;2023-05-07T10:25:06;4.85;;;3.50;;
36321;SDS011;23564;48.290;11.460;2023-05-07T10:27:39;5.82;;;3.33;;
36321;SDS011;23564;48.290;11.460;2023-05-07T10:32:53;5.88;;;3.00;;
36321;SDS011;23564;48.290;11.460;2023-05-07T10:35:23;2.97;;;2.63;;
36321;SDS011;23564;48.290;11.460;2023-05-07T10:37:51;4.88;;;2.47;;
36321;SDS011;23564;48.290;11.460;2023-05-07T10:40:17;3.63;;;2.40;;
36321;SDS011;23564;48.290;11.460;2023-05-07T10:42:55;3.47;;;2.03;;
36321;SDS011;23564;48.290;11.460;2023-05-07T10:45:30;6.82;;;2.30;;
36321;SDS011;23564;48.290;11.460;2023-05-07T10:50:35;3.45;;;1.90;;
36321;SDS011;23564;48.290;11.460;2023-05-07T10:55:43;5.85;;;2.30;;
36321;SDS011;23564;48.290;11.460;2023-05-07T10:58:23;3.75;;;1.90;;
36321;SDS011;23564;48.290;11.460;2023-05-07T11:00:54;2.35;;;1.65;;
36321;SDS011;23564;48.290;11.460;2023-05-07T11:03:25;2.28;;;1.60;;
36321;SDS011;23564;48.290;11.460;2023-05-07T11:06:10;4.47;;;2.38;;
36321;SDS011;23564;48.290;11.460;2023-05-07T11:11:18;5.40;;;2.28;;
36321;SDS011;23564;48.290;11.460;2023-05-07T11:13:47;3.33;;;1.90;;
36321;SDS011;23564;48.290;11.460;2023-05-07T11:16:24;4.43;;;2.60;;
36321;SDS011;23564;48.290;11.460;2023-05-07T11:18:52;1.98;;;1.75;;
36321;SDS011;23564;48.290;11.460;2023-05-07T11:24:07;4.35;;;1.88;;
36321;SDS011;23564;48.290;11.460;2023-05-07T11:26:45;3.65;;;1.65;;
36321;SDS011;23564;48.290;11.460;2023-05-07T11:29:13;5.22;;;1.55;;
36321;SDS011;23564;48.290;11.460;2023-05-07T11:31:43;3.28;;;1.80;;
36321;SDS011;23564;48.290;11.460;2023-05-07T11:34:08;3.83;;;2.08;;
36321;SDS011;23564;48.290;11.460;2023-05-07T11:36:37;3.92;;;2.38;;
36321;SDS011;23564;48.290;11.460;2023-05-07T11:39:22;3.17;;;2.13;;
36321;SDS011;23564;48.290;11.460;2023-05-07T11:41:52;4.30;;;1.90;;
36321;SDS011;23564;48.290;11.460;2023-05-07T11:44:17;2.90;;;2.03;;
36321;SDS011;23564;48.290;11.460;2023-05-07T11:46:43;3.50;;;2.50;;
36321;SDS011;23564;48.290;11.460;2023-05-07T11:49:09;3.97;;;2.33;;
36321;SDS011;23564;48.290;11.460;2023-05-07T11:51:35;4.13;;;2.35;;
36321;SDS011;23564;48.290;11.460;2023-05-07T11:54:03;3.10;;;2.10;;
36321;SDS011;23564;48.290;11.460;2023-05-07T11:56:33;3.92;;;2.45;;
36321;SDS011;23564;48.290;11.460;2023-05-07T11:59:00;2.47;;;2.00;;
36321;SDS011;23564;48.290;11.460;2023-05-07T12:01:25;3.63;;;1.90;;
36321;SDS011;23564;48.290;11.460;2023-05-07T12:03:51;2.00;;;1.55;;
36321;SDS011;23564;48.290;11.460;2023-05-07T12:06:17;3.35;;;1.60;;
36321;SDS011;23564;48.290;11.460;2023-05-07T12:08:44;3.65;;;1.50;;
36321;SDS011;23564;48.290;11.460;2023-05-07T12:11:15;3.20;;;1.50;;
36321;SDS011;23564;48.290;11.460;2023-05-07T12:13:46;2.00;;;1.38;;
36321;SDS011;23564;48.290;11.460;2023-05-07T12:16:12;4.78;;;1.63;;
36321;SDS011;23564;48.290;11.460;2023-05-07T12:18:37;4.75;;;1.90;;
36321;SDS011;23564;48.290;11.460;2023-05-07T12:21:04;3.03;;;1.88;;
36321;SDS011;23564;48.290;11.460;2023-05-07T12:23:31;3.05;;;1.77;;
36321;SDS011;23564;48.290;11.460;2023-05-07T12:25:58;3.30;;;2.15;;
36321;SDS011;23564;48.290;11.460;2023-05-07T12:28:24;2.72;;;1.70;;
36321;SDS011;23564;48.290;11.460;2023-05-07T12:30:50;5.00;;;2.20;;
36321;SDS011;23564;48.290;11.460;2023-05-07T12:33:18;4.20;;;2.38;;
36321;SDS011;23564;48.290;11.460;2023-05-07T12:35:48;3.03;;;1.80;;
36321;SDS011;23564;48.290;11.460;2023-05-07T12:38:14;2.25;;;1.60;;
36321;SDS011;23564;48.290;11.460;2023-05-07T12:40:43;2.63;;;1.95;;
36321;SDS011;23564;48.290;11.460;2023-05-07T12:43:19;3.08;;;1.95;;
36321;SDS011;23564;48.290;11.460;2023-05-07T12:45:47;3.10;;;2.38;;
36321;SDS011;23564;48.290;11.460;2023-05-07T12:48:14;6.15;;;2.20;;
36321;SDS011;23564;48.290;11.460;2023-05-07T12:50:40;5.25;;;2.10;;
36321;SDS011;23564;48.290;11.460;2023-05-07T12:53:06;3.85;;;2.20;;
36321;SDS011;23564;48.290;11.460;2023-05-07T12:55:40;4.43;;;2.20;;
36321;SDS011;23564;48.290;11.460;2023-05-07T12:58:07;3.97;;;2.60;;
36321;SDS011;23564;48.290;11.460;2023-05-07T13:00:35;4.78;;;2.55;;
36321;SDS011;23564;48.290;11.460;2023-05-07T13:03:02;2.63;;;2.05;;
36321;SDS011;23564;48.290;11.460;2023-05-07T13:05:28;4.63;;;2.80;;
36321;SDS011;23564;48.290;11.460;2023-05-07T13:07:54;2.65;;;2.15;;
36321;SDS011;23564;48.290;11.460;2023-05-07T13:10:21;7.43;;;2.22;;
36321;SDS011;23564;48.290;11.460;2023-05-07T13:12:47;2.65;;;2.30;;
36321;SDS011;23564;48.290;11.460;2023-05-07T13:15:13;2.33;;;1.90;;
36321;SDS011;23564;48.290;11.460;2023-05-07T13:17:39;6.07;;;2.42;;
36321;SDS011;23564;48.290;11.460;2023-05-07T13:20:04;2.75;;;1.85;;
36321;SDS011;23564;48.290;11.460;2023-05-07T13:22:30;6.80;;;2.08;;
36321;SDS011;23564;48.290;11.460;2023-05-07T13:24:56;8.00;;;2.60;;
36321;SDS011;23564;48.290;11.460;2023-05-07T13:27:22;6.00;;;2.45;;
36321;SDS011;23564;48.290;11.460;2023-05-07T13:29:47;4.18;;;2.40;;
36321;SDS011;23564;48.290;11.460;2023-05-07T13:32:13;4.72;;;2.20;;
36321;SDS011;23564;48.290;11.460;2023-05-07T13:34:40;3.80;;;2.25;;
36321;SDS011;23564;48.290;11.460;2023-05-07T13:37:06;4.40;;;2.15;;
36321;SDS011;23564;48.290;11.460;2023-05-07T13:39:32;3.28;;;2.10;;
36321;SDS011;23564;48.290;11.460;2023-05-07T13:41:58;5.55;;;2.38;;
36321;SDS011;23564;48.290;11.460;2023-05-07T13:44:23;4.05;;;2.20;;
36321;SDS011;23564;48.290;11.460;2023-05-07T13:46:49;2.63;;;2.10;;
36321;SDS011;23564;48.290;11.460;2023-05-07T13:49:15;5.43;;;2.00;;
36321;SDS011;23564;48.290;11.460;2023-05-07T13:51:40;5.00;;;3.40;;
36321;SDS011;23564;48.290;11.460;2023-05-07T13:54:06;2.90;;;2.30;;
36321;SDS011;23564;48.290;11.460;2023-05-07T13:56:32;4.55;;;2.47;;
36321;SDS011;23564;48.290;11.460;2023-05-07T13:59:00;5.35;;;2.78;;
36321;SDS011;23564;48.290;11.460;2023-05-07T14:01:26;4.43;;;2.10;;
36321;SDS011;23564;48.290;11.460;2023-05-07T14:03:52;4.45;;;1.95;;
36321;SDS011;23564;48.290;11.460;2023-05-07T14:06:17;4.35;;;1.63;;
36321;SDS011;23564;48.290;11.460;2023-05-07T14:08:43;7.22;;;1.90;;
36321;SDS011;23564;48.290;11.460;2023-05-07T14:11:08;3.72;;;1.80;;
36321;SDS011;23564;48.290;11.460;2023-05-07T14:13:34;3.83;;;1.98;;
36321;SDS011;23564;48.290;11.460;2023-05-07T14:16:00;3.33;;;1.60;;
36321;SDS011;23564;48.290;11.460;2023-05-07T14:18:25;2.88;;;1.85;;
36321;SDS011;23564;48.290;11.460;2023-05-07T14:20:51;2.03;;;1.52;;
36321;SDS011;23564;48.290;11.460;2023-05-07T14:23:17;2.22;;;1.90;;
36321;SDS011;23564;48.290;11.460;2023-05-07T14:25:44;2.10;;;1.70;;
36321;SDS011;23564;48.290;11.460;2023-05-07T14:28:12;2.80;;;1.90;;
36321;SDS011;23564;48.290;11.460;2023-05-07T14:30:38;3.25;;;1.75;;
36321;SDS011;23564;48.290;11.460;2023-05-07T14:33:03;2.72;;;1.77;;
36321;SDS011;23564;48.290;11.460;2023-05-07T14:35:29;4.80;;;1.45;;
36321;SDS011;23564;48.290;11.460;2023-05-07T14:37:54;4.78;;;1.58;;
36321;SDS011;23564;48.290;11.460;2023-05-07T14:40:20;2.53;;;1.50;;
36321;SDS011;23564;48.290;11.460;2023-05-07T14:42:46;2.92;;;1.58;;